sensor_id;sensor_type;location;lat;lon;timestamp;pressure;altitude;pressure_sealevel;temperature;humidity
35798;BME280;21918;49.940;7.774;2022-09-09T00:01:43;98271.19;;;23.22;53.09
35798;BME280;21918;49.940;7.774;2022-09-09T00:04:19;98261.53;;;23.20;53.07
35798;BME280;21918;49.940;7.774;2022-09-09T00:06:55;98251.59;;;23.35;52.73
35798;BME280;21918;49.940;7.774;2022-09-09T00:09:26;98238.03;;;23.26;53.16
35798;BME280;21918;49.940;7.774;2022-09-09T00:11:59;98242.91;;;23.26;52.93
35798;BME280;21918;49.940;7.774;2022-09-09T00:14:35;98243.31;;;23.24;52.70
35798;BME280;21918;49.940;7.774;2022-09-09T00:17:09;98240.50;;;23.24;52.57
35798;BME280;21918;49.940;7.774;2022-09-09T00:19:42;98246.56;;;23.23;52.76
35798;BME280;21918;49.940;7.774;2022-09-09T00:22:15;98243.34;;;23.21;52.73
35798;BME280;21918;49.940;7.774;2022-09-09T00:24:44;98248.59;;;23.19;52.83
35798;BME280;21918;49.940;7.774;2022-09-09T00:27:17;98243.84;;;23.16;52.91
35798;BME280;21918;49.940;7.774;2022-09-09T00:29:51;98239.03;;;23.13;52.81
35798;BME280;21918;49.940;7.774;2022-09-09T00:32:31;98243.19;;;23.05;52.89
35798;BME280;21918;49.940;7.774;2022-09-09T00:35:12;98244.00;;;23.05;52.93
35798;BME280;21918;49.940;7.774;2022-09-09T00:37:41;98244.81;;;23.06;52.97
35798;BME280;21918;49.940;7.774;2022-09-09T00:40:18;98250.44;;;23.06;52.76
35798;BME280;21918;49.940;7.774;2022-09-09T00:42:54;98249.94;;;23.11;52.57
35798;BME280;21918;49.940;7.774;2022-09-09T00:45:43;98244.00;;;23.05;52.67
35798;BME280;21918;49.940;7.774;2022-09-09T00:48:14;98241.59;;;23.04;52.74
35798;BME280;21918;49.940;7.774;2022-09-09T00:50:50;98236.88;;;22.97;52.93
35798;BME280;21918;49.940;7.774;2022-09-09T00:53:29;98235.25;;;22.96;52.90
35798;BME280;21918;49.940;7.774;2022-09-09T00:56:07;98236.44;;;22.99;52.75
35798;BME280;21918;49.940;7.774;2022-09-09T00:58:35;98248.16;;;22.97;52.72
35798;BME280;21918;49.940;7.774;2022-09-09T01:01:04;98255.44;;;22.95;52.88
35798;BME280;21918;49.940;7.774;2022-09-09T01:03:36;98251.44;;;22.92;52.74
35798;BME280;21918;49.940;7.774;2022-09-09T01:06:13;98246.22;;;22.91;52.96
35798;BME280;21918;49.940;7.774;2022-09-09T01:08:50;98247.34;;;22.97;52.65
35798;BME280;21918;49.940;7.774;2022-09-09T01:11:21;98241.69;;;22.97;52.62
35798;BME280;21918;49.940;7.774;2022-09-09T01:13:54;98236.06;;;22.97;52.55
35798;BME280;21918;49.940;7.774;2022-09-09T01:16:24;98241.31;;;23.21;51.90
35798;BME280;21918;49.940;7.774;2022-09-09T01:18:53;98241.38;;;23.18;52.21
35798;BME280;21918;49.940;7.774;2022-09-09T01:21:27;98232.16;;;23.14;52.16
35798;BME280;21918;49.940;7.774;2022-09-09T01:24:15;98238.03;;;23.00;52.43
35798;BME280;21918;49.940;7.774;2022-09-09T01:26:48;98242.41;;;23.04;52.32
35798;BME280;21918;49.940;7.774;2022-09-09T01:29:18;98250.88;;;23.04;52.55
35798;BME280;21918;49.940;7.774;2022-09-09T01:31:53;98244.13;;;22.95;52.43
35798;BME280;21918;49.940;7.774;2022-09-09T01:34:21;98243.41;;;22.91;52.73
35798;BME280;21918;49.940;7.774;2022-09-09T01:36:51;98245.47;;;22.87;52.60
35798;BME280;21918;49.940;7.774;2022-09-09T01:39:20;98250.75;;;22.85;52.83
35798;BME280;21918;49.940;7.774;2022-09-09T01:41:48;98252.41;;;22.82;52.91
35798;BME280;21918;49.940;7.774;2022-09-09T01:44:15;98251.66;;;22.78;52.84
35798;BME280;21918;49.940;7.774;2022-09-09T01:46:45;98255.28;;;22.79;53.09
35798;BME280;21918;49.940;7.774;2022-09-09T01:49:12;98254.06;;;22.80;53.03
35798;BME280;21918;49.940;7.774;2022-09-09T01:51:40;98263.66;;;22.86;52.83
35798;BME280;21918;49.940;7.774;2022-09-09T01:54:08;98256.78;;;22.87;52.56
35798;BME280;21918;49.940;7.774;2022-09-09T01:56:40;98256.34;;;22.88;52.54
35798;BME280;21918;49.940;7.774;2022-09-09T01:59:24;98263.66;;;22.86;52.64
35798;BME280;21918;49.940;7.774;2022-09-09T02:02:06;98260.44;;;22.84;52.67
35798;BME280;21918;49.940;7.774;2022-09-09T02:04:38;98253.22;;;22.83;52.82
35798;BME280;21918;49.940;7.774;2022-09-09T02:07:10;98254.00;;;22.83;52.74
35798;BME280;21918;49.940;7.774;2022-09-09T02:09:43;98245.94;;;22.82;52.71
35798;BME280;21918;49.940;7.774;2022-09-09T02:12:14;98254.41;;;22.82;52.75
35798;BME280;21918;49.940;7.774;2022-09-09T02:14:48;98253.25;;;22.79;52.63
35798;BME280;21918;49.940;7.774;2022-09-09T02:17:25;98246.88;;;22.75;52.68
35798;BME280;21918;49.940;7.774;2022-09-09T02:19:56;98251.69;;;22.75;52.84
35798;BME280;21918;49.940;7.774;2022-09-09T02:22:26;98244.84;;;22.76;52.78
35798;BME280;21918;49.940;7.774;2022-09-09T02:24:56;98243.56;;;22.80;52.77
35798;BME280;21918;49.940;7.774;2022-09-09T02:27:24;98244.25;;;22.88;52.65
35798;BME280;21918;49.940;7.774;2022-09-09T02:29:53;98246.63;;;22.93;52.61
35798;BME280;21918;49.940;7.774;2022-09-09T02:32:24;98246.97;;;22.95;52.24
35798;BME280;21918;49.940;7.774;2022-09-09T02:34:55;98243.38;;;22.94;52.23
35798;BME280;21918;49.940;7.774;2022-09-09T02:37:26;98243.41;;;22.91;52.09
35798;BME280;21918;49.940;7.774;2022-09-09T02:39:54;98243.50;;;22.84;52.37
35798;BME280;21918;49.940;7.774;2022-09-09T02:42:21;98248.41;;;22.80;52.59
35798;BME280;21918;49.940;7.774;2022-09-09T02:44:49;98244.78;;;22.79;52.62
35798;BME280;21918;49.940;7.774;2022-09-09T02:47:25;98234.31;;;22.80;52.59
35798;BME280;21918;49.940;7.774;2022-09-09T02:50:02;98233.91;;;22.78;52.30
35798;BME280;21918;49.940;7.774;2022-09-09T02:52:54;98220.72;;;22.71;52.47
35798;BME280;21918;49.940;7.774;2022-09-09T02:55:29;98221.13;;;22.70;52.79
35798;BME280;21918;49.940;7.774;2022-09-09T02:58:04;98219.16;;;22.67;53.01
35798;BME280;21918;49.940;7.774;2022-09-09T03:00:33;98222.47;;;22.62;53.21
35798;BME280;21918;49.940;7.774;2022-09-09T03:03:02;98222.03;;;22.63;53.20
35798;BME280;21918;49.940;7.774;2022-09-09T03:05:29;98243.00;;;22.62;53.29
35798;BME280;21918;49.940;7.774;2022-09-09T03:07:57;98237.34;;;22.66;53.24
35798;BME280;21918;49.940;7.774;2022-09-09T03:10:24;98241.31;;;22.68;53.22
35798;BME280;21918;49.940;7.774;2022-09-09T03:12:50;98248.56;;;22.69;52.85
35798;BME280;21918;49.940;7.774;2022-09-09T03:15:17;98247.81;;;22.65;52.86
35798;BME280;21918;49.940;7.774;2022-09-09T03:17:44;98249.88;;;22.61;53.21
35798;BME280;21918;49.940;7.774;2022-09-09T03:20:11;98249.47;;;22.63;53.20
35798;BME280;21918;49.940;7.774;2022-09-09T03:22:38;98248.22;;;22.64;53.24
35798;BME280;21918;49.940;7.774;2022-09-09T03:25:05;98250.19;;;22.70;53.21
35798;BME280;21918;49.940;7.774;2022-09-09T03:27:32;98245.69;;;22.73;53.19
35798;BME280;21918;49.940;7.774;2022-09-09T03:29:59;98241.22;;;22.75;53.13
35798;BME280;21918;49.940;7.774;2022-09-09T03:32:29;98247.72;;;22.72;53.16
35798;BME280;21918;49.940;7.774;2022-09-09T03:34:56;98249.38;;;22.70;53.34
35798;BME280;21918;49.940;7.774;2022-09-09T03:37:24;98245.31;;;22.71;53.19
35798;BME280;21918;49.940;7.774;2022-09-09T03:39:51;98242.88;;;22.73;53.15
35798;BME280;21918;49.940;7.774;2022-09-09T03:42:19;98231.94;;;22.75;52.86
35798;BME280;21918;49.940;7.774;2022-09-09T03:44:46;98229.13;;;22.75;52.85
35798;BME280;21918;49.940;7.774;2022-09-09T03:47:16;98213.06;;;22.72;52.77
35798;BME280;21918;49.940;7.774;2022-09-09T03:49:43;98205.00;;;22.70;52.81
35798;BME280;21918;49.940;7.774;2022-09-09T03:52:10;98205.16;;;22.60;53.56
35798;BME280;21918;49.940;7.774;2022-09-09T03:54:38;98214.56;;;22.50;53.89
35798;BME280;21918;49.940;7.774;2022-09-09T03:57:04;98205.28;;;22.49;53.87
35798;BME280;21918;49.940;7.774;2022-09-09T03:59:31;98197.97;;;22.55;53.70
35798;BME280;21918;49.940;7.774;2022-09-09T04:01:58;98211.59;;;22.60;53.52
35798;BME280;21918;49.940;7.774;2022-09-09T04:04:25;98209.63;;;22.57;53.46
35798;BME280;21918;49.940;7.774;2022-09-09T04:06:53;98215.69;;;22.56;53.41
35798;BME280;21918;49.940;7.774;2022-09-09T04:09:20;98210.91;;;22.53;53.42
35798;BME280;21918;49.940;7.774;2022-09-09T04:11:48;98212.97;;;22.49;53.36
35798;BME280;21918;49.940;7.774;2022-09-09T04:14:15;98212.97;;;22.45;53.68
35798;BME280;21918;49.940;7.774;2022-09-09T04:16:42;98219.84;;;22.44;53.59
35798;BME280;21918;49.940;7.774;2022-09-09T04:19:09;98223.84;;;22.47;53.62
35798;BME280;21918;49.940;7.774;2022-09-09T04:21:37;98231.16;;;22.44;53.47
35798;BME280;21918;49.940;7.774;2022-09-09T04:24:05;98231.94;;;22.45;53.65
35798;BME280;21918;49.940;7.774;2022-09-09T04:26:32;98229.13;;;22.45;53.67
35798;BME280;21918;49.940;7.774;2022-09-09T04:29:00;98235.94;;;22.47;53.67
35798;BME280;21918;49.940;7.774;2022-09-09T04:31:26;98235.94;;;22.47;53.67
35798;BME280;21918;49.940;7.774;2022-09-09T04:33:53;98237.16;;;22.46;53.45
35798;BME280;21918;49.940;7.774;2022-09-09T04:36:20;98237.97;;;22.47;53.40
35798;BME280;21918;49.940;7.774;2022-09-09T04:38:47;98235.97;;;22.43;53.49
35798;BME280;21918;49.940;7.774;2022-09-09T04:41:14;98233.16;;;22.43;53.59
35798;BME280;21918;49.940;7.774;2022-09-09T04:43:42;98232.38;;;22.43;53.64
35798;BME280;21918;49.940;7.774;2022-09-09T04:46:12;98238.84;;;22.40;53.63
35798;BME280;21918;49.940;7.774;2022-09-09T04:48:41;98238.44;;;22.42;53.66
35798;BME280;21918;49.940;7.774;2022-09-09T04:51:11;98246.06;;;22.45;53.49
35798;BME280;21918;49.940;7.774;2022-09-09T04:53:38;98253.66;;;22.48;53.45
35798;BME280;21918;49.940;7.774;2022-09-09T04:56:07;98246.41;;;22.47;53.53
35798;BME280;21918;49.940;7.774;2022-09-09T04:58:35;98253.28;;;22.46;53.43
35798;BME280;21918;49.940;7.774;2022-09-09T05:01:04;98258.13;;;22.45;53.45
35798;BME280;21918;49.940;7.774;2022-09-09T05:03:32;98263.84;;;22.42;53.33
35798;BME280;21918;49.940;7.774;2022-09-09T05:06:03;98263.88;;;22.38;53.35
35798;BME280;21918;49.940;7.774;2022-09-09T05:08:30;98261.09;;;22.34;53.46
35798;BME280;21918;49.940;7.774;2022-09-09T05:10:56;98260.28;;;22.34;53.55
35798;BME280;21918;49.940;7.774;2022-09-09T05:13:24;98258.69;;;22.33;53.49
35798;BME280;21918;49.940;7.774;2022-09-09T05:15:51;98254.66;;;22.34;53.46
35798;BME280;21918;49.940;7.774;2022-09-09T05:18:19;98257.88;;;22.32;53.24
35798;BME280;21918;49.940;7.774;2022-09-09T05:20:48;98261.56;;;22.29;53.34
35798;BME280;21918;49.940;7.774;2022-09-09T05:23:16;98268.41;;;22.28;53.41
35798;BME280;21918;49.940;7.774;2022-09-09T05:25:42;98268.03;;;22.26;53.17
35798;BME280;21918;49.940;7.774;2022-09-09T05:28:10;98259.56;;;22.26;53.40
35798;BME280;21918;49.940;7.774;2022-09-09T05:30:37;98265.22;;;22.26;53.44
35798;BME280;21918;49.940;7.774;2022-09-09T05:33:04;98266.38;;;22.29;53.36
35798;BME280;21918;49.940;7.774;2022-09-09T05:35:31;98264.38;;;22.29;53.32
35798;BME280;21918;49.940;7.774;2022-09-09T05:38:00;98265.97;;;22.30;53.34
35798;BME280;21918;49.940;7.774;2022-09-09T05:40:27;98265.22;;;22.26;53.28
35798;BME280;21918;49.940;7.774;2022-09-09T05:42:53;98271.66;;;22.27;53.37
35798;BME280;21918;49.940;7.774;2022-09-09T05:45:20;98268.78;;;22.30;53.38
35798;BME280;21918;49.940;7.774;2022-09-09T05:47:51;98265.53;;;22.32;53.40
35798;BME280;21918;49.940;7.774;2022-09-09T05:50:19;98265.53;;;22.32;53.45
35798;BME280;21918;49.940;7.774;2022-09-09T05:52:45;98278.06;;;22.31;53.31
35798;BME280;21918;49.940;7.774;2022-09-09T05:55:16;98277.25;;;22.30;53.42
35798;BME280;21918;49.940;7.774;2022-09-09T05:57:48;98285.34;;;22.28;53.62
35798;BME280;21918;49.940;7.774;2022-09-09T06:00:15;98289.72;;;22.33;53.68
35798;BME280;21918;49.940;7.774;2022-09-09T06:02:41;98284.03;;;22.36;53.67
35798;BME280;21918;49.940;7.774;2022-09-09T06:05:09;98286.75;;;22.43;53.72
35798;BME280;21918;49.940;7.774;2022-09-09T06:07:36;98285.09;;;22.46;53.60
35798;BME280;21918;49.940;7.774;2022-09-09T06:10:03;98279.47;;;22.50;53.56
35798;BME280;21918;49.940;7.774;2022-09-09T06:12:31;98289.91;;;22.53;53.39
35798;BME280;21918;49.940;7.774;2022-09-09T06:14:58;98285.91;;;22.50;53.38
35798;BME280;21918;49.940;7.774;2022-09-09T06:17:25;98288.31;;;22.52;53.52
35798;BME280;21918;49.940;7.774;2022-09-09T06:19:51;98283.03;;;22.54;53.57
35798;BME280;21918;49.940;7.774;2022-09-09T06:22:18;98274.97;;;22.56;53.72
35798;BME280;21918;49.940;7.774;2022-09-09T06:24:46;98269.69;;;22.58;53.55
35798;BME280;21918;49.940;7.774;2022-09-09T06:27:12;98273.72;;;22.57;53.71
35798;BME280;21918;49.940;7.774;2022-09-09T06:29:41;98276.94;;;22.59;53.46
35798;BME280;21918;49.940;7.774;2022-09-09T06:32:07;98278.09;;;22.61;53.61
35798;BME280;21918;49.940;7.774;2022-09-09T06:34:34;98277.69;;;22.63;53.62
35798;BME280;21918;49.940;7.774;2022-09-09T06:37:01;98280.09;;;22.64;53.75
35798;BME280;21918;49.940;7.774;2022-09-09T06:39:28;98269.16;;;22.66;53.73
35798;BME280;21918;49.940;7.774;2022-09-09T06:41:55;98273.19;;;22.69;53.72
35798;BME280;21918;49.940;7.774;2022-09-09T06:44:23;98277.59;;;22.70;53.71
35798;BME280;21918;49.940;7.774;2022-09-09T06:46:53;98264.66;;;22.72;53.85
35798;BME280;21918;49.940;7.774;2022-09-09T06:49:20;98270.25;;;22.76;53.92
35798;BME280;21918;49.940;7.774;2022-09-09T06:51:51;98267.38;;;22.79;53.89
35798;BME280;21918;49.940;7.774;2022-09-09T06:54:29;98266.16;;;22.80;53.96
35798;BME280;21918;49.940;7.774;2022-09-09T06:56:56;98268.59;;;22.78;53.94
35798;BME280;21918;49.940;7.774;2022-09-09T06:59:22;98268.63;;;22.75;54.23
35798;BME280;21918;49.940;7.774;2022-09-09T07:01:49;98275.09;;;22.75;54.21
35798;BME280;21918;49.940;7.774;2022-09-09T07:04:18;98271.00;;;22.80;54.27
35798;BME280;21918;49.940;7.774;2022-09-09T07:06:45;98271.34;;;22.82;54.30
35798;BME280;21918;49.940;7.774;2022-09-09T07:09:14;98272.56;;;22.84;54.11
35798;BME280;21918;49.940;7.774;2022-09-09T07:11:43;98268.06;;;22.87;54.11
35798;BME280;21918;49.940;7.774;2022-09-09T07:14:11;98270.94;;;22.83;54.08
35798;BME280;21918;49.940;7.774;2022-09-09T07:16:39;98280.59;;;22.86;54.28
35798;BME280;21918;49.940;7.774;2022-09-09T07:19:05;98274.03;;;22.92;54.20
35798;BME280;21918;49.940;7.774;2022-09-09T07:21:34;98273.22;;;22.92;54.13
35798;BME280;21918;49.940;7.774;2022-09-09T07:24:01;98271.63;;;22.91;54.30
35798;BME280;21918;49.940;7.774;2022-09-09T07:26:30;98268.78;;;22.94;54.33
35798;BME280;21918;49.940;7.774;2022-09-09T07:28:57;98270.38;;;22.95;54.34
35798;BME280;21918;49.940;7.774;2022-09-09T07:31:25;98268.34;;;22.96;54.20
35798;BME280;21918;49.940;7.774;2022-09-09T07:33:53;98268.66;;;23.01;54.08
35798;BME280;21918;49.940;7.774;2022-09-09T07:36:21;98278.69;;;23.06;53.91
35798;BME280;21918;49.940;7.774;2022-09-09T07:38:51;98278.28;;;23.07;53.79
35798;BME280;21918;49.940;7.774;2022-09-09T07:41:20;98282.72;;;23.05;53.67
35798;BME280;21918;49.940;7.774;2022-09-09T07:43:48;98273.88;;;23.03;53.64
35798;BME280;21918;49.940;7.774;2022-09-09T07:46:22;98288.03;;;22.99;53.61
35798;BME280;21918;49.940;7.774;2022-09-09T07:48:54;98297.34;;;23.00;53.55
35798;BME280;21918;49.940;7.774;2022-09-09T07:51:25;98302.13;;;23.03;53.48
35798;BME280;21918;49.940;7.774;2022-09-09T07:53:54;98301.28;;;23.06;53.47
35798;BME280;21918;49.940;7.774;2022-09-09T07:56:22;98303.69;;;23.07;53.52
35798;BME280;21918;49.940;7.774;2022-09-09T07:58:51;98307.28;;;23.08;53.44
35798;BME280;21918;49.940;7.774;2022-09-09T08:01:21;98311.66;;;23.12;53.48
35798;BME280;21918;49.940;7.774;2022-09-09T08:03:53;98312.47;;;23.13;53.29
35798;BME280;21918;49.940;7.774;2022-09-09T08:06:20;98313.63;;;23.15;53.44
35798;BME280;21918;49.940;7.774;2022-09-09T08:08:50;98317.22;;;23.19;53.35
35798;BME280;21918;49.940;7.774;2022-09-09T08:11:18;98320.38;;;23.25;53.25
35798;BME280;21918;49.940;7.774;2022-09-09T08:13:45;98314.25;;;23.30;53.28
35798;BME280;21918;49.940;7.774;2022-09-09T08:16:15;98317.44;;;23.32;53.15
35798;BME280;21918;49.940;7.774;2022-09-09T08:18:42;98321.53;;;23.27;52.87
35798;BME280;21918;49.940;7.774;2022-09-09T08:21:10;98323.47;;;23.34;52.87
35798;BME280;21918;49.940;7.774;2022-09-09T08:23:39;98315.31;;;23.39;52.89
35798;BME280;21918;49.940;7.774;2022-09-09T08:26:09;98317.59;;;23.48;52.73
35798;BME280;21918;49.940;7.774;2022-09-09T08:28:37;98321.13;;;23.55;52.60
35798;BME280;21918;49.940;7.774;2022-09-09T08:31:09;98319.88;;;23.56;52.49
35798;BME280;21918;49.940;7.774;2022-09-09T08:33:36;98320.31;;;23.55;52.48
35798;BME280;21918;49.940;7.774;2022-09-09T08:36:04;98325.59;;;23.53;52.20
35798;BME280;21918;49.940;7.774;2022-09-09T08:38:32;98322.81;;;23.49;52.17
35798;BME280;21918;49.940;7.774;2022-09-09T08:41:06;98322.88;;;23.46;52.19
35798;BME280;21918;49.940;7.774;2022-09-09T08:43:37;98321.53;;;23.54;52.35
35798;BME280;21918;49.940;7.774;2022-09-09T08:46:10;98329.63;;;23.52;51.64
35798;BME280;21918;49.940;7.774;2022-09-09T08:48:46;98329.28;;;23.50;51.78
35798;BME280;21918;49.940;7.774;2022-09-09T08:51:18;98328.44;;;23.53;51.70
35798;BME280;21918;49.940;7.774;2022-09-09T08:53:48;98332.00;;;23.57;51.75
35798;BME280;21918;49.940;7.774;2022-09-09T08:56:18;98336.41;;;23.58;51.42
35798;BME280;21918;49.940;7.774;2022-09-09T08:58:48;98342.88;;;23.58;51.42
35798;BME280;21918;49.940;7.774;2022-09-09T09:01:35;98342.50;;;23.56;51.36
35798;BME280;21918;49.940;7.774;2022-09-09T09:04:15;98335.94;;;23.63;51.32
35798;BME280;21918;49.940;7.774;2022-09-09T09:06:51;98335.06;;;23.66;51.31
35798;BME280;21918;49.940;7.774;2022-09-09T09:09:23;98334.06;;;23.76;51.29
35798;BME280;21918;49.940;7.774;2022-09-09T09:11:54;98328.69;;;23.85;51.26
35798;BME280;21918;49.940;7.774;2022-09-09T09:14:28;98333.06;;;23.89;51.10
35798;BME280;21918;49.940;7.774;2022-09-09T09:16:58;98337.38;;;23.97;51.15
35798;BME280;21918;49.940;7.774;2022-09-09T09:19:26;98327.59;;;24.02;51.00
35798;BME280;21918;49.940;7.774;2022-09-09T09:21:58;98340.03;;;24.08;50.61
35798;BME280;21918;49.940;7.774;2022-09-09T09:24:33;98330.16;;;24.16;50.16
35798;BME280;21918;49.940;7.774;2022-09-09T09:27:12;98327.63;;;24.21;50.16
35798;BME280;21918;49.940;7.774;2022-09-09T09:29:41;98350.44;;;24.34;50.17
35798;BME280;21918;49.940;7.774;2022-09-09T09:32:12;98350.44;;;24.34;49.22
35798;BME280;21918;49.940;7.774;2022-09-09T09:34:40;98348.50;;;24.31;49.01
35798;BME280;21918;49.940;7.774;2022-09-09T09:37:14;98352.53;;;24.30;48.84
35798;BME280;21918;49.940;7.774;2022-09-09T09:39:45;98348.97;;;24.26;48.92
35798;BME280;21918;49.940;7.774;2022-09-09T09:42:13;98341.63;;;24.28;48.81
35798;BME280;21918;49.940;7.774;2022-09-09T09:44:41;98348.09;;;24.29;48.45
35798;BME280;21918;49.940;7.774;2022-09-09T09:47:11;98344.56;;;24.25;48.70
35798;BME280;21918;49.940;7.774;2022-09-09T09:49:38;98340.84;;;24.28;48.93
35798;BME280;21918;49.940;7.774;2022-09-09T09:52:06;98333.47;;;24.34;48.81
35798;BME280;21918;49.940;7.774;2022-09-09T09:54:37;98327.25;;;24.42;48.78
35798;BME280;21918;49.940;7.774;2022-09-09T09:57:09;98329.50;;;24.51;48.57
35798;BME280;21918;49.940;7.774;2022-09-09T09:59:36;98323.31;;;24.56;48.35
35798;BME280;21918;49.940;7.774;2022-09-09T10:02:21;98328.16;;;24.55;48.11
35798;BME280;21918;49.940;7.774;2022-09-09T10:05:01;98334.16;;;24.61;48.26
35798;BME280;21918;49.940;7.774;2022-09-09T10:07:28;98324.72;;;24.67;47.73
35798;BME280;21918;49.940;7.774;2022-09-09T10:09:56;98329.78;;;24.76;47.28
35798;BME280;21918;49.940;7.774;2022-09-09T10:12:31;98315.63;;;24.76;46.68
35798;BME280;21918;49.940;7.774;2022-09-09T10:15:02;98325.44;;;24.72;46.33
35798;BME280;21918;49.940;7.774;2022-09-09T10:17:39;98330.00;;;24.65;46.49
35798;BME280;21918;49.940;7.774;2022-09-09T10:20:20;98317.53;;;24.63;46.27
35798;BME280;21918;49.940;7.774;2022-09-09T10:22:52;98322.59;;;24.72;45.91
35798;BME280;21918;49.940;7.774;2022-09-09T10:25:37;98309.31;;;24.68;46.21
35798;BME280;21918;49.940;7.774;2022-09-09T10:28:21;98316.50;;;24.73;46.17
35798;BME280;21918;49.940;7.774;2022-09-09T10:31:01;98314.25;;;24.84;45.93
35798;BME280;21918;49.940;7.774;2022-09-09T10:33:39;98314.56;;;24.90;45.35
35798;BME280;21918;49.940;7.774;2022-09-09T10:36:12;98311.13;;;24.98;45.70
35798;BME280;21918;49.940;7.774;2022-09-09T10:38:40;98299.91;;;25.11;46.04
35798;BME280;21918;49.940;7.774;2022-09-09T10:41:16;98296.53;;;25.16;46.06
35798;BME280;21918;49.940;7.774;2022-09-09T10:44:19;98284.31;;;25.19;46.54
35798;BME280;21918;49.940;7.774;2022-09-09T10:47:01;98302.13;;;25.19;46.04
35798;BME280;21918;49.940;7.774;2022-09-09T10:49:57;98307.09;;;25.15;46.40
35798;BME280;21918;49.940;7.774;2022-09-09T10:52:32;98297.09;;;25.27;46.22
35798;BME280;21918;49.940;7.774;2022-09-09T10:55:08;98306.75;;;25.29;46.01
35798;BME280;21918;49.940;7.774;2022-09-09T10:57:39;98300.22;;;25.32;45.76
35798;BME280;21918;49.940;7.774;2022-09-09T11:00:15;98294.72;;;25.25;45.86
35798;BME280;21918;49.940;7.774;2022-09-09T11:02:42;98300.38;;;25.25;45.79
35798;BME280;21918;49.940;7.774;2022-09-09T11:05:18;98302.56;;;25.18;44.95
35798;BME280;21918;49.940;7.774;2022-09-09T11:07:48;98290.88;;;25.16;45.45
35798;BME280;21918;49.940;7.774;2022-09-09T11:10:22;98305.47;;;25.14;45.35
35798;BME280;21918;49.940;7.774;2022-09-09T11:12:53;98312.81;;;25.12;45.50
35798;BME280;21918;49.940;7.774;2022-09-09T11:15:30;98311.31;;;25.07;45.53
35798;BME280;21918;49.940;7.774;2022-09-09T11:18:03;98316.09;;;25.10;45.68
35798;BME280;21918;49.940;7.774;2022-09-09T11:20:33;98322.13;;;25.12;45.72
35798;BME280;21918;49.940;7.774;2022-09-09T11:23:03;98318.84;;;25.14;45.94
35798;BME280;21918;49.940;7.774;2022-09-09T11:25:34;98321.41;;;25.08;46.05
35798;BME280;21918;49.940;7.774;2022-09-09T11:28:14;98325.28;;;24.98;46.44
35798;BME280;21918;49.940;7.774;2022-09-09T11:30:58;98315.06;;;24.85;46.91
35798;BME280;21918;49.940;7.774;2022-09-09T11:33:53;98331.53;;;24.70;47.26
35798;BME280;21918;49.940;7.774;2022-09-09T11:36:38;98324.28;;;24.69;47.96
35798;BME280;21918;49.940;7.774;2022-09-09T11:39:35;98326.84;;;24.63;48.32
35798;BME280;21918;49.940;7.774;2022-09-09T11:42:07;98332.06;;;24.65;48.35
35798;BME280;21918;49.940;7.774;2022-09-09T11:44:34;98338.28;;;24.56;48.63
35798;BME280;21918;49.940;7.774;2022-09-09T11:47:01;98323.84;;;24.51;48.72
35798;BME280;21918;49.940;7.774;2022-09-09T11:49:29;98331.88;;;24.52;49.06
35798;BME280;21918;49.940;7.774;2022-09-09T11:52:12;98327.88;;;24.50;48.83
35798;BME280;21918;49.940;7.774;2022-09-09T11:54:47;98312.50;;;24.51;49.67
35798;BME280;21918;49.940;7.774;2022-09-09T11:57:24;98322.88;;;24.57;50.97
35798;BME280;21918;49.940;7.774;2022-09-09T11:59:51;98320.31;;;24.67;51.25
35798;BME280;21918;49.940;7.774;2022-09-09T12:02:22;98317.03;;;24.68;51.58
35798;BME280;21918;49.940;7.774;2022-09-09T12:04:56;98316.31;;;24.64;50.94
35798;BME280;21918;49.940;7.774;2022-09-09T12:07:31;98317.91;;;24.65;50.74
35798;BME280;21918;49.940;7.774;2022-09-09T12:10:02;98312.25;;;24.65;50.82
35798;BME280;21918;49.940;7.774;2022-09-09T12:12:31;98315.41;;;24.67;51.37
35798;BME280;21918;49.940;7.774;2022-09-09T12:15:02;98304.09;;;24.67;50.62
35798;BME280;21918;49.940;7.774;2022-09-09T12:17:30;98307.28;;;24.69;50.23
35798;BME280;21918;49.940;7.774;2022-09-09T12:20:06;98303.38;;;24.63;49.79
35798;BME280;21918;49.940;7.774;2022-09-09T12:22:45;98304.09;;;24.67;50.21
35798;BME280;21918;49.940;7.774;2022-09-09T12:25:23;98301.03;;;24.78;50.74
35798;BME280;21918;49.940;7.774;2022-09-09T12:28:02;98290.53;;;24.78;51.24
35798;BME280;21918;49.940;7.774;2022-09-09T12:30:36;98292.03;;;24.83;51.28
35798;BME280;21918;49.940;7.774;2022-09-09T12:33:10;98286.81;;;24.81;51.61
35798;BME280;21918;49.940;7.774;2022-09-09T12:35:40;98281.00;;;24.88;50.75
35798;BME280;21918;49.940;7.774;2022-09-09T12:38:17;98299.56;;;24.89;50.72
35798;BME280;21918;49.940;7.774;2022-09-09T12:40:55;98296.22;;;24.94;50.49
35798;BME280;21918;49.940;7.774;2022-09-09T12:43:24;98296.97;;;24.98;50.26
35798;BME280;21918;49.940;7.774;2022-09-09T12:45:54;98288.78;;;25.00;50.26
35798;BME280;21918;49.940;7.774;2022-09-09T12:48:31;98299.34;;;25.00;50.79
35798;BME280;21918;49.940;7.774;2022-09-09T12:50:58;98296.09;;;25.01;50.44
35798;BME280;21918;49.940;7.774;2022-09-09T12:53:30;98298.38;;;25.06;50.48
35798;BME280;21918;49.940;7.774;2022-09-09T12:56:01;98295.09;;;25.08;50.48
35798;BME280;21918;49.940;7.774;2022-09-09T12:58:30;98305.63;;;25.07;49.94
35798;BME280;21918;49.940;7.774;2022-09-09T13:00:58;98297.84;;;25.11;49.89
35798;BME280;21918;49.940;7.774;2022-09-09T13:03:26;98292.91;;;25.15;49.86
35798;BME280;21918;49.940;7.774;2022-09-09T13:05:57;98301.75;;;25.17;50.00
35798;BME280;21918;49.940;7.774;2022-09-09T13:08:26;98298.84;;;25.21;49.51
35798;BME280;21918;49.940;7.774;2022-09-09T13:10:55;98302.19;;;25.16;49.77
35798;BME280;21918;49.940;7.774;2022-09-09T13:13:27;98305.47;;;25.14;49.55
35798;BME280;21918;49.940;7.774;2022-09-09T13:15:57;98304.75;;;25.10;49.48
35798;BME280;21918;49.940;7.774;2022-09-09T13:18:26;98306.50;;;25.04;49.68
35798;BME280;21918;49.940;7.774;2022-09-09T13:20:53;98319.97;;;25.00;49.61